Time;durP1;ratioP1;P1;durP2;ratioP2;P2;SDS_P1;SDS_P2;PMS_P1;PMS_P2;Temp;Humidity;BMP_temperature;BMP_pressure;BME280_temperature;BME280_humidity;BME280_pressure;Samples;Min_cycle;Max_cycle;Signal;HPM_P1;HPM_P2
2021/01/28 00:01:40;;;;;;;60.50;26.53;;;7.70;99.90;;;;;;4880313;29;20683;-67
2021/01/28 00:04:06;;;;;;;67.40;29.27;;;7.70;99.90;;;;;;4880195;29;20189;-67
2021/01/28 00:06:31;;;;;;;55.07;28.37;;;7.70;99.90;;;;;;4880034;29;20237;-68
2021/01/28 00:08:56;;;;;;;69.30;28.90;;;7.70;99.90;;;;;;4880369;29;20181;-66
2021/01/28 00:11:22;;;;;;;75.53;30.40;;;7.60;99.90;;;;;;4880364;29;20236;-66
2021/01/28 00:13:48;;;;;;;61.37;28.77;;;7.50;99.90;;;;;;4880197;29;20272;-66
2021/01/28 00:16:13;;;;;;;63.83;29.47;;;7.50;99.90;;;;;;4880253;29;20189;-66
2021/01/28 00:18:39;;;;;;;56.90;26.20;;;7.50;99.90;;;;;;4879925;29;20188;-66
2021/01/28 00:21:04;;;;;;;67.63;29.30;;;7.50;99.90;;;;;;4880152;29;20263;-66
2021/01/28 00:23:30;;;;;;;65.23;29.23;;;7.40;99.90;;;;;;4880177;29;20182;-66
2021/01/28 00:25:55;;;;;;;69.33;28.80;;;7.40;99.90;;;;;;4880098;29;20268;-66
2021/01/28 00:28:22;;;;;;;66.43;31.87;;;7.40;99.90;;;;;;4880160;29;20180;-66
2021/01/28 00:30:51;;;;;;;79.03;28.57;;;7.50;99.90;;;;;;4880020;29;20191;-66
2021/01/28 00:33:23;;;;;;;74.73;29.33;;;7.40;99.90;;;;;;4879989;29;20979;-66
2021/01/28 00:35:51;;;;;;;73.37;30.97;;;7.40;99.90;;;;;;4879872;29;20484;-67
2021/01/28 00:38:29;;;;;;;85.03;32.13;;;7.40;99.90;;;;;;4878773;29;20433;-66
2021/01/28 00:40:55;;;;;;;77.13;31.10;;;7.50;99.90;;;;;;4879619;29;20430;-67
2021/01/28 00:43:22;;;;;;;70.37;27.97;;;7.50;99.90;;;;;;4879922;29;20768;-67
2021/01/28 00:45:47;;;;;;;65.87;26.90;;;7.50;99.90;;;;;;4879646;29;20430;-67
2021/01/28 00:48:13;;;;;;;72.23;28.87;;;7.60;99.90;;;;;;4879748;29;21180;-67
2021/01/28 00:50:40;;;;;;;67.80;28.90;;;7.60;99.90;;;;;;4879756;29;20510;-67
2021/01/28 00:53:08;;;;;;;71.90;29.30;;;7.60;99.90;;;;;;4879621;29;20485;-67
2021/01/28 00:55:33;;;;;;;65.93;29.67;;;7.50;99.90;;;;;;4879529;29;20485;-67
2021/01/28 00:57:59;;;;;;;68.60;28.53;;;7.50;99.90;;;;;;4879546;29;20947;-67
2021/01/28 01:00:31;;;;;;;79.27;31.10;;;7.50;99.90;;;;;;4879653;29;20185;-67
2021/01/28 01:02:57;;;;;;;64.70;28.87;;;7.50;99.90;;;;;;4879565;29;20181;-67
2021/01/28 01:05:26;;;;;;;67.57;30.77;;;7.50;99.90;;;;;;4879295;29;20572;-67
2021/01/28 01:07:52;;;;;;;61.10;30.23;;;7.50;99.90;;;;;;4879513;29;20422;-67
2021/01/28 01:10:26;;;;;;;70.63;30.23;;;7.50;99.90;;;;;;4879470;29;20422;-67
2021/01/28 01:12:52;;;;;;;61.97;28.70;;;7.50;99.90;;;;;;4879446;29;20913;-66
2021/01/28 01:15:18;;;;;;;71.40;28.93;;;7.50;99.90;;;;;;4879315;29;20484;-67
2021/01/28 01:17:43;;;;;;;70.73;30.83;;;7.50;99.90;;;;;;4879481;29;20177;-65
2021/01/28 01:20:10;;;;;;;67.70;29.30;;;7.50;99.90;;;;;;4879374;29;20796;-65
2021/01/28 01:22:35;;;;;;;73.33;30.20;;;7.50;99.90;;;;;;4879342;29;20184;-65
2021/01/28 01:25:01;;;;;;;69.27;30.10;;;7.40;99.90;;;;;;4879279;29;20803;-66
2021/01/28 01:27:26;;;;;;;63.60;28.63;;;7.50;99.90;;;;;;4879436;29;20573;-66
2021/01/28 01:29:52;;;;;;;67.70;30.37;;;7.40;99.90;;;;;;4880366;29;20529;-66
2021/01/28 01:32:17;;;;;;;67.40;30.80;;;7.50;99.90;;;;;;4883128;29;20180;-65
2021/01/28 01:34:43;;;;;;;69.20;29.73;;;7.50;99.90;;;;;;4883042;29;20224;-65
2021/01/28 01:37:09;;;;;;;66.47;25.40;;;7.60;99.90;;;;;;4882993;29;20184;-65
2021/01/28 01:39:34;;;;;;;84.07;33.20;;;7.50;99.90;;;;;;4883016;29;20241;-65
2021/01/28 01:42:00;;;;;;;68.77;31.27;;;7.40;99.90;;;;;;4883237;29;20778;-65
2021/01/28 01:44:25;;;;;;;75.63;32.00;;;7.50;99.90;;;;;;4883120;29;20193;-65
2021/01/28 01:47:01;;;;;;;61.93;26.83;;;7.40;99.90;;;;;;4882872;29;20213;-65
2021/01/28 01:49:26;;;;;;;70.20;30.93;;;7.40;99.90;;;;;;4883042;29;20198;-65
2021/01/28 01:51:52;;;;;;;67.03;31.30;;;7.40;99.90;;;;;;4882799;29;20439;-65
2021/01/28 01:54:33;;;;;;;80.93;29.80;;;7.40;99.90;;;;;;4882920;29;20552;-65
2021/01/28 01:57:01;;;;;;;70.90;31.30;;;7.50;99.90;;;;;;4882850;29;20425;-64
2021/01/28 01:59:33;;;;;;;71.30;30.40;;;7.40;99.90;;;;;;4882719;29;20457;-63
2021/01/28 02:02:09;;;;;;;61.20;29.07;;;7.50;99.90;;;;;;4882614;29;20433;-63
2021/01/28 02:04:35;;;;;;;62.07;31.60;;;7.50;99.90;;;;;;4882546;29;20445;-64
2021/01/28 02:07:11;;;;;;;59.87;29.07;;;7.40;99.90;;;;;;4882589;29;20441;-63
2021/01/28 02:09:37;;;;;;;68.57;29.50;;;7.40;99.90;;;;;;4882611;29;20437;-63
2021/01/28 02:12:03;;;;;;;68.10;28.93;;;7.30;99.90;;;;;;4882441;29;20437;-63
2021/01/28 02:14:30;;;;;;;66.20;28.37;;;7.40;99.90;;;;;;4882269;29;20277;-63
2021/01/28 02:17:23;;;;;;;70.33;29.47;;;7.40;99.90;;;;;;4882291;29;20794;-63
2021/01/28 02:19:51;;;;;;;65.50;27.47;;;7.40;99.90;;;;;;4880713;29;20505;-64
2021/01/28 02:22:48;;;;;;;73.67;31.17;;;7.40;99.90;;;;;;4882314;29;20435;-63
2021/01/28 06:32:20;;;;;;;27.37;13.60;;;7.00;99.90;;;;;;5237079;23;21081;-65
2021/01/28 06:35:07;;;;;;;25.70;13.17;;;6.90;99.90;;;;;;4919638;29;20483;-65
2021/01/28 06:37:55;;;;;;;23.93;13.20;;;6.90;99.90;;;;;;4919723;29;20511;-66
2021/01/28 06:40:28;;;;;;;19.17;12.80;;;6.90;99.90;;;;;;4919749;29;20494;-66
2021/01/28 06:43:02;;;;;;;21.40;11.73;;;6.80;99.90;;;;;;4918317;29;20795;-66
2021/01/28 06:45:32;;;;;;;17.17;12.03;;;6.80;99.90;;;;;;4919630;29;20428;-66
2021/01/28 06:48:22;;;;;;;17.17;10.13;;;6.90;99.90;;;;;;4919397;29;20439;-65
2021/01/28 06:51:09;;;;;;;17.03;9.80;;;6.90;99.90;;;;;;4919353;29;20439;-66
2021/01/28 06:53:46;;;;;;;12.00;8.10;;;6.90;99.90;;;;;;4910489;29;20520;-66
2021/01/28 06:56:33;;;;;;;16.70;9.93;;;7.00;99.90;;;;;;4919320;29;20447;-66
2021/01/28 06:59:49;;;;;;;11.53;9.10;;;7.00;99.90;;;;;;4919271;29;20427;-66
2021/01/28 07:02:58;;;;;;;13.40;9.37;;;6.90;99.90;;;;;;4863501;29;21060;-64
2021/01/28 07:05:42;;;;;;;14.33;8.30;;;6.90;99.90;;;;;;4917320;29;20457;-67
2021/01/28 07:08:40;;;;;;;13.73;9.33;;;6.90;99.90;;;;;;4916718;29;20915;-68
2021/01/28 07:11:11;;;;;;;15.67;9.00;;;7.00;99.90;;;;;;4917641;29;20861;-68
2021/01/28 07:13:39;;;;;;;10.77;7.97;;;7.00;99.90;;;;;;4915231;29;20455;-66
2021/01/28 07:16:16;;;;;;;13.13;8.03;;;7.00;99.90;;;;;;4938252;23;20474;-64
2021/01/28 07:18:47;;;;;;;13.73;7.73;;;7.00;99.90;;;;;;4919356;29;20427;-65
2021/01/28 07:24:37;;;;;;;12.97;7.00;;;7.10;99.90;;;;;;4918966;29;20411;-64
2021/01/28 07:30:42;;;;;;;6.80;5.07;;;7.10;99.90;;;;;;4918910;29;20411;-64
2021/01/28 07:33:22;;;;;;;11.40;5.57;;;7.10;99.90;;;;;;4919093;29;20919;-65
2021/01/28 07:36:02;;;;;;;9.80;5.83;;;7.00;99.90;;;;;;4918692;29;21004;-65
2021/01/28 07:38:28;;;;;;;6.90;5.73;;;7.00;99.90;;;;;;4919064;29;20422;-64
2021/01/28 07:41:07;;;;;;;5.70;5.00;;;7.00;99.90;;;;;;4918970;29;20770;-64
2021/01/28 07:46:57;;;;;;;10.63;5.23;;;6.90;99.90;;;;;;4918572;29;20545;-64
2021/01/28 07:52:44;;;;;;;6.43;4.00;;;6.80;99.90;;;;;;4918548;29;20414;-63
2021/01/28 07:55:44;;;;;;;6.10;4.57;;;6.80;99.90;;;;;;4918337;29;20475;-64
2021/01/28 08:01:32;;;;;;;3.93;3.43;;;6.90;99.90;;;;;;4918333;29;20414;-64
2021/01/28 08:04:12;;;;;;;6.70;3.80;;;6.90;99.90;;;;;;4918165;29;20933;-64
2021/01/28 08:06:39;;;;;;;8.13;4.30;;;6.90;99.90;;;;;;4918506;29;20210;-64
2021/01/28 08:09:06;;;;;;;4.80;3.17;;;6.90;99.90;;;;;;4918167;29;20424;-64
2021/01/28 08:14:55;;;;;;;4.33;3.47;;;7.00;99.90;;;;;;4918008;29;20486;-64
2021/01/28 08:17:28;;;;;;;5.10;3.37;;;7.00;99.90;;;;;;4917829;29;20478;-64
2021/01/28 08:20:19;;;;;;;5.20;3.30;;;7.00;99.90;;;;;;4917983;29;20437;-64
2021/01/28 08:23:06;;;;;;;4.03;3.60;;;7.00;99.90;;;;;;4918217;29;20761;-63
2021/01/28 08:25:37;;;;;;;9.50;3.80;;;7.10;99.90;;;;;;4918168;29;20787;-64
2021/01/28 08:28:13;;;;;;;4.93;3.83;;;7.00;99.90;;;;;;4916909;29;20587;-64
2021/01/28 08:30:39;;;;;;;5.63;3.87;;;7.00;99.90;;;;;;4918088;29;20438;-63
2021/01/28 08:36:47;;;;;;;6.47;4.33;;;6.90;99.90;;;;;;4917681;29;20443;-64
2021/01/28 08:39:22;;;;;;;6.50;3.70;;;6.90;99.90;;;;;;4917686;29;20470;-64
2021/01/28 08:42:13;;;;;;;5.57;4.30;;;6.90;99.90;;;;;;4917889;29;20478;-65
2021/01/28 08:44:41;;;;;;;7.53;4.63;;;6.90;99.90;;;;;;4916407;29;20512;-64
2021/01/28 08:47:12;;;;;;;11.43;5.70;;;6.90;99.90;;;;;;4917720;29;20861;-63
2021/01/28 08:53:04;;;;;;;6.80;4.80;;;6.90;99.90;;;;;;4917525;29;20458;-68
2021/01/28 08:58:52;;;;;;;8.33;6.30;;;6.90;99.90;;;;;;4917367;29;20419;-69
2021/01/28 09:01:18;;;;;;;10.63;6.97;;;6.90;99.90;;;;;;4917380;29;20432;-68
2021/01/28 09:04:20;;;;;;;8.53;4.97;;;7.00;99.90;;;;;;4917296;29;20459;-68
2021/01/28 09:06:47;;;;;;;9.17;6.73;;;7.00;99.90;;;;;;4887565;29;20993;-68
2021/01/28 09:12:35;;;;;;;7.40;5.90;;;7.00;99.90;;;;;;4917283;29;20416;-68
2021/01/28 09:15:11;;;;;;;10.40;5.10;;;7.00;99.90;;;;;;4917163;29;20471;-68
2021/01/28 09:17:38;;;;;;;7.60;4.90;;;6.90;99.90;;;;;;4917175;29;20819;-69
2021/01/28 09:23:26;;;;;;;5.40;4.53;;;6.90;99.90;;;;;;4917302;29;20411;-68
2021/01/28 09:26:19;;;;;;;8.67;5.00;;;6.80;99.90;;;;;;4917387;29;20511;-68
2021/01/28 09:32:13;;;;;;;6.93;4.97;;;7.00;99.90;;;;;;4917107;29;20430;-68
2021/01/28 09:34:40;;;;;;;6.80;4.90;;;7.00;99.90;;;;;;4917360;29;20511;-68
2021/01/28 09:37:16;;;;;;;6.07;4.73;;;7.00;99.90;;;;;;4917301;29;20548;-68
2021/01/28 09:39:52;;;;;;;6.80;4.30;;;7.00;99.90;;;;;;4917385;29;20563;-68
2021/01/28 09:42:23;;;;;;;9.93;4.83;;;7.00;99.90;;;;;;4917219;29;20450;-68
2021/01/28 09:44:49;;;;;;;8.77;5.20;;;7.00;99.90;;;;;;4917292;29;20475;-68
2021/01/28 09:47:15;;;;;;;7.63;4.80;;;6.90;99.90;;;;;;4917252;29;20439;-68
2021/01/28 09:49:41;;;;;;;6.13;4.60;;;7.00;99.90;;;;;;4917244;29;20439;-69
2021/01/28 09:55:32;;;;;;;4.80;4.27;;;7.00;99.90;;;;;;4920521;29;20470;-68
2021/01/28 09:57:58;;;;;;;5.70;3.83;;;6.90;99.90;;;;;;4920572;29;20493;-68
2021/01/28 10:00:24;;;;;;;4.47;3.77;;;6.90;99.90;;;;;;4920724;29;20439;-68
2021/01/28 10:02:59;;;;;;;8.80;4.87;;;7.00;99.90;;;;;;4921055;29;20223;-68
2021/01/28 10:05:28;;;;;;;4.50;3.13;;;7.00;99.90;;;;;;4920456;29;20914;-68
2021/01/28 10:07:54;;;;;;;5.60;3.77;;;7.00;99.90;;;;;;4920361;29;20455;-68
2021/01/28 10:10:22;;;;;;;5.27;3.23;;;7.00;99.90;;;;;;4920248;29;20439;-67
2021/01/28 10:16:10;;;;;;;4.60;3.40;;;7.00;99.90;;;;;;4920046;29;20539;-67
2021/01/28 10:18:35;;;;;;;3.77;3.37;;;7.00;99.90;;;;;;4920403;29;20434;-68
2021/01/28 10:21:01;;;;;;;4.20;3.43;;;7.20;99.90;;;;;;4920472;29;20917;-67
2021/01/28 10:23:27;;;;;;;5.17;3.63;;;7.20;99.90;;;;;;4920415;29;20183;-67
2021/01/28 10:25:53;;;;;;;5.50;3.70;;;7.10;99.90;;;;;;4920341;29;20640;-67
2021/01/28 10:28:18;;;;;;;5.70;4.27;;;7.00;99.90;;;;;;4919993;29;20191;-67
2021/01/28 10:30:44;;;;;;;5.57;4.50;;;7.00;99.90;;;;;;4920253;29;20439;-68
2021/01/28 10:33:11;;;;;;;8.23;3.50;;;6.90;99.90;;;;;;4920152;29;20180;-67
2021/01/28 10:35:37;;;;;;;7.33;4.30;;;6.90;99.90;;;;;;4920159;29;20211;-68
2021/01/28 10:38:04;;;;;;;4.80;3.80;;;6.90;99.90;;;;;;4920136;29;20850;-68
2021/01/28 10:40:30;;;;;;;5.00;3.70;;;6.90;99.90;;;;;;4920112;29;20462;-67
2021/01/28 10:43:00;;;;;;;5.50;3.93;;;6.90;99.90;;;;;;4920089;29;20443;-67
2021/01/28 10:45:31;;;;;;;4.53;3.20;;;6.90;99.90;;;;;;4920062;29;20423;-67
2021/01/28 10:47:57;;;;;;;12.13;5.00;;;7.00;99.90;;;;;;4919710;29;20424;-67
2021/01/28 10:50:24;;;;;;;5.43;4.13;;;7.00;99.90;;;;;;4919612;29;20439;-68
2021/01/28 10:52:51;;;;;;;5.90;3.63;;;7.00;99.90;;;;;;4919526;29;20428;-67
2021/01/28 10:55:18;;;;;;;4.97;4.47;;;6.90;99.90;;;;;;4919773;29;20482;-67
2021/01/28 10:57:43;;;;;;;5.13;4.50;;;6.90;99.90;;;;;;4919885;29;20435;-67
2021/01/28 11:00:11;;;;;;;6.90;5.17;;;7.00;99.90;;;;;;4919479;29;20427;-67
2021/01/28 11:02:37;;;;;;;6.40;4.00;;;7.00;99.90;;;;;;4919655;29;20180;-68
2021/01/28 11:05:05;;;;;;;6.13;4.50;;;7.00;99.90;;;;;;4919729;29;20465;-68
2021/01/28 11:07:30;;;;;;;4.70;4.20;;;7.00;99.90;;;;;;4919327;29;20518;-67
2021/01/28 11:09:57;;;;;;;5.20;4.17;;;7.00;99.90;;;;;;4919643;29;20511;-67
2021/01/28 11:12:23;;;;;;;10.27;4.20;;;7.10;99.90;;;;;;4919298;29;20175;-67
2021/01/28 11:14:48;;;;;;;5.77;4.10;;;7.10;99.90;;;;;;4919124;29;20584;-67
2021/01/28 11:17:14;;;;;;;4.73;3.80;;;7.10;99.90;;;;;;4919061;29;20570;-67
2021/01/28 11:19:39;;;;;;;4.60;3.40;;;7.10;99.90;;;;;;4919427;29;20187;-67
2021/01/28 11:25:28;;;;;;;4.17;3.70;;;7.20;99.90;;;;;;4919139;29;20202;-68
2021/01/28 11:27:54;;;;;;;3.93;3.53;;;7.20;99.90;;;;;;4918919;29;20527;-68
2021/01/28 11:30:23;;;;;;;4.23;3.60;;;7.20;99.90;;;;;;4919288;29;20424;-68
2021/01/28 11:36:11;;;;;;;3.67;2.90;;;7.20;99.90;;;;;;4918856;29;20822;-68
2021/01/28 11:41:58;;;;;;;5.87;4.30;;;7.10;99.90;;;;;;4918689;29;20162;-68
2021/01/28 11:44:24;;;;;;;4.20;3.77;;;7.20;99.90;;;;;;4918710;29;21002;-68
2021/01/28 11:46:49;;;;;;;3.53;3.23;;;7.10;99.90;;;;;;4918912;29;20172;-69
2021/01/28 11:49:15;;;;;;;6.33;3.47;;;7.20;99.90;;;;;;4918589;29;20227;-68
2021/01/28 11:51:41;;;;;;;6.30;3.73;;;7.20;99.90;;;;;;4918704;29;20176;-68
2021/01/28 11:54:06;;;;;;;5.33;4.83;;;7.20;99.90;;;;;;4918740;29;20448;-68
2021/01/28 11:56:32;;;;;;;6.67;4.43;;;7.10;99.90;;;;;;4918510;29;20191;-69
2021/01/28 11:58:57;;;;;;;3.87;3.57;;;7.10;99.90;;;;;;4918357;29;20172;-68
2021/01/28 12:01:23;;;;;;;4.87;4.00;;;7.10;99.90;;;;;;4918910;29;20180;-68
2021/01/28 12:03:48;;;;;;;3.53;3.23;;;7.20;99.90;;;;;;4918592;29;20227;-68
2021/01/28 12:06:14;;;;;;;5.33;3.50;;;7.20;99.90;;;;;;4918521;29;20176;-68
2021/01/28 12:08:40;;;;;;;4.20;3.77;;;7.20;99.90;;;;;;4918528;29;20275;-68
2021/01/28 12:14:27;;;;;;;6.53;4.53;;;7.20;99.90;;;;;;4917950;29;20199;-68
2021/01/28 12:16:53;;;;;;;6.27;4.80;;;7.10;99.90;;;;;;4918068;29;20468;-68
2021/01/28 12:19:18;;;;;;;5.37;4.57;;;7.10;99.90;;;;;;4918336;29;20663;-68
2021/01/28 12:21:44;;;;;;;5.50;5.00;;;7.00;99.90;;;;;;4918312;29;20651;-68
2021/01/28 12:24:10;;;;;;;6.43;4.93;;;7.10;99.90;;;;;;4918279;29;20510;-68
2021/01/28 12:26:37;;;;;;;6.33;4.60;;;7.10;99.90;;;;;;4918152;29;20188;-68
2021/01/28 12:29:02;;;;;;;5.90;5.10;;;7.10;99.90;;;;;;4918139;29;20183;-68
2021/01/28 12:31:28;;;;;;;5.23;4.13;;;7.20;99.90;;;;;;4918100;29;20486;-68
2021/01/28 12:33:53;;;;;;;5.60;5.00;;;7.20;99.90;;;;;;4917723;29;20647;-68
2021/01/28 12:36:19;;;;;;;6.60;5.57;;;7.20;99.90;;;;;;4918132;29;20184;-68
2021/01/28 12:38:45;;;;;;;7.50;5.60;;;7.10;99.90;;;;;;4918047;29;20541;-68
2021/01/28 12:41:10;;;;;;;7.00;6.13;;;7.20;99.90;;;;;;4917963;29;20208;-68
2021/01/28 12:43:36;;;;;;;6.70;6.10;;;7.20;99.90;;;;;;4917672;29;20175;-68
2021/01/28 12:46:02;;;;;;;7.57;6.77;;;7.30;99.90;;;;;;4917484;29;20218;-68
2021/01/28 12:48:28;;;;;;;6.00;5.40;;;7.30;99.90;;;;;;4917892;29;20456;-68
2021/01/28 12:50:53;;;;;;;6.60;5.90;;;7.20;99.90;;;;;;4917871;29;20184;-68
2021/01/28 12:53:19;;;;;;;5.63;5.07;;;7.20;99.90;;;;;;4917814;29;20175;-68
2021/01/28 12:55:44;;;;;;;7.33;5.00;;;7.20;99.90;;;;;;4917757;29;20215;-68
2021/01/28 13:01:31;;;;;;;7.97;4.63;;;7.20;99.90;;;;;;4917507;29;20171;-67
2021/01/28 13:03:57;;;;;;;5.63;5.13;;;7.30;99.90;;;;;;4917728;29;20428;-67
2021/01/28 13:06:22;;;;;;;6.90;5.73;;;7.30;99.90;;;;;;4917375;29;20535;-67
2021/01/28 13:12:10;;;;;;;5.83;5.30;;;7.40;99.90;;;;;;4917542;29;20165;-67
2021/01/28 13:14:35;;;;;;;5.80;5.20;;;7.40;99.90;;;;;;4917198;29;20819;-67
2021/01/28 13:17:01;;;;;;;7.07;5.83;;;7.40;99.90;;;;;;4917137;29;20260;-67
2021/01/28 13:19:27;;;;;;;5.57;5.03;;;7.40;99.90;;;;;;4917544;29;20259;-67
2021/01/28 13:25:16;;;;;;;7.57;5.43;;;7.50;99.90;;;;;;4917300;29;20192;-67
2021/01/28 13:31:04;;;;;;;5.10;4.50;;;7.60;99.90;;;;;;4921073;29;20410;-67
2021/01/28 13:36:52;;;;;;;7.63;4.73;;;7.60;99.90;;;;;;4920962;29;20550;-68
2021/01/28 13:42:39;;;;;;;6.80;5.10;;;7.50;99.90;;;;;;4920823;29;20166;-67
2021/01/28 13:48:27;;;;;;;5.33;4.80;;;7.50;99.90;;;;;;4920687;29;20226;-67
2021/01/28 13:50:53;;;;;;;7.10;4.80;;;7.50;99.90;;;;;;4920640;29;20431;-67
2021/01/28 13:56:41;;;;;;;7.17;5.27;;;7.50;99.90;;;;;;4920767;29;20215;-67
2021/01/28 14:02:28;;;;;;;6.70;5.10;;;7.60;99.90;;;;;;4920411;29;20994;-68
2021/01/28 14:04:53;;;;;;;6.70;5.50;;;7.60;99.90;;;;;;4920123;29;20510;-68
2021/01/28 14:07:19;;;;;;;7.10;4.90;;;7.60;99.90;;;;;;4919843;29;20175;-68
2021/01/28 14:09:44;;;;;;;4.97;4.53;;;7.50;99.90;;;;;;4920245;29;20199;-68
2021/01/28 14:12:10;;;;;;;5.03;4.53;;;7.50;99.90;;;;;;4920252;29;20179;-68
2021/01/28 14:17:58;;;;;;;5.40;4.90;;;7.50;99.90;;;;;;4909609;29;20324;-67
2021/01/28 14:23:45;;;;;;;6.20;4.10;;;7.50;99.90;;;;;;4920198;29;20260;-69
2021/01/28 14:26:11;;;;;;;6.13;4.10;;;7.50;99.90;;;;;;4919982;29;20467;-68
2021/01/28 14:28:36;;;;;;;4.30;3.80;;;7.50;99.90;;;;;;4920504;29;20176;-68
2021/01/28 14:31:02;;;;;;;4.17;3.70;;;7.50;99.90;;;;;;4920677;29;20231;-67
2021/01/28 14:33:28;;;;;;;3.70;3.30;;;7.50;99.90;;;;;;4919787;29;20172;-68
2021/01/28 14:35:53;;;;;;;3.70;3.30;;;7.50;99.90;;;;;;4920103;29;20715;-68
2021/01/28 14:41:41;;;;;;;3.73;3.43;;;7.50;99.90;;;;;;4920141;29;20168;-68
2021/01/28 14:44:07;;;;;;;3.10;2.60;;;7.50;99.90;;;;;;4919976;29;20431;-67
2021/01/28 14:46:33;;;;;;;4.83;3.77;;;7.50;99.90;;;;;;4919989;29;20536;-68
2021/01/28 14:48:59;;;;;;;4.87;3.70;;;7.50;99.90;;;;;;4919879;29;20427;-69
2021/01/28 14:51:24;;;;;;;3.57;3.27;;;7.50;99.90;;;;;;4919454;29;20172;-68
2021/01/28 14:53:50;;;;;;;4.60;3.40;;;7.50;99.90;;;;;;4919820;29;20187;-68
2021/01/28 14:59:37;;;;;;;6.03;3.30;;;7.50;99.90;;;;;;4919429;29;20230;-68
2021/01/28 15:02:03;;;;;;;3.60;3.13;;;7.50;99.90;;;;;;4919389;29;20915;-69
2021/01/28 15:04:28;;;;;;;4.60;3.37;;;7.50;99.90;;;;;;4919614;29;20183;-68
2021/01/28 15:10:16;;;;;;;3.20;2.90;;;7.50;99.90;;;;;;4919284;29;20187;-68
2021/01/28 15:12:45;;;;;;;3.83;2.93;;;7.50;99.90;;;;;;4919428;29;20423;-68
2021/01/28 15:18:39;;;;;;;2.90;2.63;;;7.50;99.90;;;;;;4913956;29;20473;-67
2021/01/28 15:24:26;;;;;;;2.33;2.10;;;7.40;99.90;;;;;;4919064;29;20219;-67
2021/01/28 15:26:52;;;;;;;2.97;2.47;;;7.50;99.90;;;;;;4919131;29;20423;-68
2021/01/28 15:29:17;;;;;;;1.80;1.57;;;7.50;99.90;;;;;;4918770;29;20667;-70
2021/01/28 15:35:14;;;;;;;2.33;2.10;;;7.40;99.90;;;;;;4918860;29;20615;-67
2021/01/28 15:37:41;;;;;;;3.27;1.90;;;7.40;99.90;;;;;;4918542;29;20992;-68
2021/01/28 15:40:07;;;;;;;3.20;2.23;;;7.40;99.90;;;;;;4918859;29;20531;-67
2021/01/28 15:42:32;;;;;;;2.00;1.80;;;7.40;99.90;;;;;;4918494;29;20874;-67
2021/01/28 15:44:58;;;;;;;3.27;2.97;;;7.40;99.90;;;;;;4918565;29;20455;-67
2021/01/28 15:47:24;;;;;;;3.97;2.77;;;7.40;99.90;;;;;;4918733;29;20643;-67
2021/01/28 15:49:50;;;;;;;3.00;2.70;;;7.40;99.90;;;;;;4917890;29;20218;-69
2021/01/28 15:52:15;;;;;;;5.27;3.03;;;7.30;99.90;;;;;;4918596;29;20184;-69
2021/01/28 15:54:41;;;;;;;4.23;2.80;;;7.30;99.90;;;;;;4918534;29;20563;-69
2021/01/28 15:57:06;;;;;;;3.80;2.83;;;7.30;99.90;;;;;;4918411;29;20179;-69
2021/01/28 15:59:32;;;;;;;5.60;3.53;;;7.40;99.90;;;;;;4918040;29;20192;-68
2021/01/28 16:01:58;;;;;;;4.80;3.23;;;7.40;99.90;;;;;;4918517;29;20180;-68
2021/01/28 16:04:23;;;;;;;5.27;4.10;;;7.40;99.90;;;;;;4918196;29;20235;-68
2021/01/28 16:06:49;;;;;;;7.10;5.00;;;7.40;99.90;;;;;;4918448;29;20194;-69
2021/01/28 16:09:17;;;;;;;6.30;4.30;;;7.40;99.90;;;;;;4918290;29;20184;-69
2021/01/28 16:11:42;;;;;;;5.80;4.40;;;7.40;99.90;;;;;;4916862;29;20210;-70
2021/01/28 16:14:08;;;;;;;7.47;5.10;;;7.40;99.90;;;;;;4918155;29;20523;-70
2021/01/28 16:16:33;;;;;;;7.15;5.47;;;7.40;99.90;;;;;;4917174;29;20442;-71
2021/01/28 16:18:59;;;;;;;7.67;5.10;;;7.40;99.90;;;;;;4917559;29;20224;-69
2021/01/28 16:21:24;;;;;;;7.20;4.80;;;7.40;99.90;;;;;;4917991;29;20176;-69
2021/01/28 16:27:12;;;;;;;7.27;5.57;;;7.40;99.90;;;;;;4918173;29;20178;-69
2021/01/28 16:32:59;;;;;;;6.60;5.43;;;7.40;99.90;;;;;;4916852;29;20428;-71
2021/01/28 16:35:27;;;;;;;9.97;6.90;;;7.40;99.90;;;;;;4918103;29;20824;-69
2021/01/28 16:41:16;;;;;;;5.73;4.30;;;7.40;99.90;;;;;;4917266;29;20466;-64
2021/01/28 16:43:41;;;;;;;5.53;4.40;;;7.40;99.90;;;;;;4917561;29;20852;-65
2021/01/28 16:49:29;;;;;;;4.93;3.47;;;7.40;99.90;;;;;;4917512;29;20171;-65
2021/01/28 16:55:16;;;;;;;6.07;4.43;;;7.40;99.90;;;;;;4917203;29;20292;-65
2021/01/28 17:01:04;;;;;;;6.77;5.03;;;7.40;99.90;;;;;;4917482;29;20207;-65
2021/01/28 17:03:29;;;;;;;7.80;4.90;;;7.40;99.90;;;;;;4917478;29;20455;-65
2021/01/28 17:05:55;;;;;;;9.97;4.53;;;7.40;99.90;;;;;;4917330;29;20563;-65
2021/01/28 17:11:42;;;;;;;9.37;5.30;;;7.40;99.90;;;;;;4917215;29;20311;-65
2021/01/28 17:14:08;;;;;;;8.60;5.80;;;7.40;99.90;;;;;;4917274;29;20476;-65
2021/01/28 17:16:33;;;;;;;5.90;5.00;;;7.40;99.90;;;;;;4917311;29;20198;-65
2021/01/28 17:18:59;;;;;;;7.60;5.27;;;7.40;99.90;;;;;;4916803;29;20317;-65
2021/01/28 17:21:24;;;;;;;9.17;6.60;;;7.40;99.90;;;;;;4917227;29;20534;-65
2021/01/28 17:23:50;;;;;;;8.47;5.80;;;7.40;99.90;;;;;;4917104;29;20175;-65
2021/01/28 17:26:15;;;;;;;7.57;6.60;;;7.40;99.90;;;;;;4917240;29;20643;-65
2021/01/28 17:28:41;;;;;;;10.23;7.17;;;7.40;99.90;;;;;;4917255;29;20636;-64
2021/01/28 17:34:28;;;;;;;16.40;11.00;;;7.40;99.90;;;;;;4917200;29;20287;-65
2021/01/28 17:36:54;;;;;;;11.47;9.90;;;7.30;99.90;;;;;;4917186;29;20463;-66
2021/01/28 17:39:19;;;;;;;13.70;10.30;;;7.30;99.90;;;;;;4917191;29;20398;-65
2021/01/28 17:41:45;;;;;;;12.97;10.20;;;7.30;99.90;;;;;;4917199;29;20176;-66
2021/01/28 17:44:11;;;;;;;12.50;10.07;;;7.20;99.90;;;;;;4917087;29;20535;-65
2021/01/28 17:46:37;;;;;;;13.90;10.70;;;7.20;99.90;;;;;;4916943;29;20190;-66
2021/01/28 17:49:02;;;;;;;14.27;11.73;;;7.20;99.90;;;;;;4916723;29;20438;-64
2021/01/28 17:54:49;;;;;;;13.00;10.20;;;7.10;99.90;;;;;;4916809;29;20570;-64
2021/01/28 17:57:15;;;;;;;15.97;11.23;;;7.10;99.90;;;;;;4917051;29;20444;-64
2021/01/28 17:59:41;;;;;;;14.30;11.50;;;7.10;99.90;;;;;;4917070;29;20187;-64
2021/01/28 18:02:08;;;;;;;12.40;10.93;;;7.10;99.90;;;;;;4916965;29;20183;-65
2021/01/28 18:04:34;;;;;;;14.73;11.40;;;7.10;99.90;;;;;;4917010;29;20823;-65
2021/01/28 18:07:00;;;;;;;14.80;11.10;;;7.10;99.90;;;;;;4916616;29;20571;-65
2021/01/28 18:09:25;;;;;;;16.13;12.30;;;7.00;99.90;;;;;;4916832;29;20518;-65
2021/01/28 18:11:53;;;;;;;14.30;11.97;;;7.00;99.90;;;;;;4917488;29;20659;-65
2021/01/28 18:14:20;;;;;;;13.80;12.17;;;7.00;99.90;;;;;;4920038;29;20190;-65
2021/01/28 18:16:46;;;;;;;16.00;11.53;;;7.00;99.90;;;;;;4920135;29;20443;-65
2021/01/28 18:19:12;;;;;;;18.20;13.40;;;6.90;99.90;;;;;;4919999;29;20615;-66
2021/01/28 18:21:37;;;;;;;17.30;12.40;;;6.90;99.90;;;;;;4919920;29;20188;-64
2021/01/28 18:24:04;;;;;;;15.03;11.73;;;6.90;99.90;;;;;;4920364;29;20176;-65
2021/01/28 18:26:30;;;;;;;16.33;12.87;;;6.90;99.90;;;;;;4920091;29;20206;-65
2021/01/28 18:32:18;;;;;;;15.50;12.60;;;6.90;99.90;;;;;;4920020;29;20544;-64
2021/01/28 18:34:45;;;;;;;15.03;12.17;;;6.90;99.90;;;;;;4920071;29;20467;-65
2021/01/28 18:37:11;;;;;;;17.77;12.57;;;6.90;99.90;;;;;;4920104;29;20491;-64
2021/01/28 18:39:37;;;;;;;20.07;13.87;;;6.90;99.90;;;;;;4920089;29;20438;-65
2021/01/28 18:42:03;;;;;;;16.87;13.20;;;6.90;99.90;;;;;;4920006;29;20935;-64
2021/01/28 18:44:29;;;;;;;19.17;13.50;;;6.80;99.90;;;;;;4919941;29;20183;-65
2021/01/28 18:46:56;;;;;;;20.73;13.47;;;6.80;99.90;;;;;;4920004;29;20184;-65
2021/01/28 18:49:22;;;;;;;20.90;13.87;;;6.80;99.90;;;;;;4919915;29;20522;-66
2021/01/28 18:51:47;;;;;;;17.33;13.60;;;6.80;99.90;;;;;;4919913;29;20923;-66
2021/01/28 18:54:14;;;;;;;24.20;15.27;;;6.80;99.90;;;;;;4919697;29;20190;-66
2021/01/28 18:56:40;;;;;;;16.67;14.67;;;6.80;99.90;;;;;;4919778;29;20208;-66
2021/01/28 18:59:05;;;;;;;20.73;15.13;;;6.80;99.90;;;;;;4919386;29;20842;-66
2021/01/28 19:01:31;;;;;;;21.50;14.27;;;6.80;99.90;;;;;;4919674;29;20217;-65
2021/01/28 19:03:57;;;;;;;20.57;15.47;;;6.80;99.90;;;;;;4919714;29;20535;-63
2021/01/28 19:06:23;;;;;;;17.50;13.77;;;6.80;99.90;;;;;;4919754;29;20193;-64
2021/01/28 19:08:50;;;;;;;15.40;12.37;;;6.90;99.90;;;;;;4928083;29;20191;-64
2021/01/28 19:11:16;;;;;;;16.60;12.17;;;7.00;99.90;;;;;;4919947;29;20194;-64
2021/01/28 19:13:41;;;;;;;22.63;14.50;;;7.00;99.90;;;;;;4919545;29;20432;-63
2021/01/28 19:19:29;;;;;;;14.97;12.27;;;7.00;99.90;;;;;;4910087;29;20323;-64
2021/01/28 19:21:54;;;;;;;18.00;12.93;;;7.00;99.90;;;;;;4919073;29;20530;-64
2021/01/28 19:24:20;;;;;;;17.23;13.60;;;6.90;99.90;;;;;;4917736;29;20194;-66
2021/01/28 19:26:45;;;;;;;20.13;14.40;;;6.80;99.90;;;;;;4919229;29;20180;-64
2021/01/28 19:32:33;;;;;;;19.90;13.40;;;6.70;99.90;;;;;;4918986;29;20166;-64
2021/01/28 19:34:58;;;;;;;15.40;12.03;;;6.60;99.90;;;;;;4918972;29;20970;-64
2021/01/28 19:40:47;;;;;;;19.53;14.03;;;6.60;99.90;;;;;;4918964;29;20252;-64
2021/01/28 19:43:19;;;;;;;23.53;13.93;;;6.70;99.90;;;;;;4918636;29;20431;-64